Time;durP1;ratioP1;P1;durP2;ratioP2;P2;SDS_P1;SDS_P2;PMS_P1;PMS_P2;Temp;Humidity;BMP_temperature;BMP_pressure;BME280_temperature;BME280_humidity;BME280_pressure;Samples;Min_cycle;Max_cycle;Signal;HPM_P1;HPM_P2
2022/03/21 00:02:43;;;;;;;13.13;9.02;;;;;;;7.32;80.74;100529.69;8257827;28;20062;-71
2022/03/21 00:06:45;;;;;;;13.73;9.52;;;;;;;7.35;80.50;100533.22;8263389;28;20046;-71
2022/03/21 00:10:46;;;;;;;14.10;8.98;;;;;;;7.33;80.74;100534.91;8266222;28;20069;-72
2022/03/21 00:14:48;;;;;;;13.97;9.03;;;;;;;7.33;80.89;100532.31;8260972;28;20062;-71
2022/03/21 00:18:49;;;;;;;12.70;9.40;;;;;;;7.34;80.52;100540.94;8259428;28;20542;-71
2022/03/21 00:22:51;;;;;;;15.20;9.70;;;;;;;7.33;81.08;100540.06;8262828;28;20046;-71
2022/03/21 00:26:53;;;;;;;18.38;10.15;;;;;;;7.33;80.72;100541.78;8260432;28;20145;-75
2022/03/21 00:30:55;;;;;;;17.53;10.10;;;;;;;7.35;80.16;100534.94;8268058;28;20078;-72
2022/03/21 00:34:57;;;;;;;13.80;9.60;;;;;;;7.39;80.14;100539.38;8612443;23;20145;-72
2022/03/21 00:38:58;;;;;;;14.77;9.97;;;;;;;7.39;80.09;100550.59;8251017;28;20051;-71
2022/03/21 00:43:01;;;;;;;13.90;9.83;;;;;;;7.39;80.14;100548.00;8250258;28;20339;-71
2022/03/21 00:47:04;;;;;;;15.70;9.25;;;;;;;7.37;80.73;100541.91;8242965;28;20511;-71
2022/03/21 00:51:06;;;;;;;;;;;;;;;7.35;80.78;100540.97;8253929;28;20358;-71
2022/03/21 00:55:09;;;;;;;12.60;8.40;;;;;;;7.34;80.46;100539.22;8283189;28;19929;-71
2022/03/21 00:59:10;;;;;;;14.50;8.83;;;;;;;7.35;80.69;100547.84;8290815;28;20054;-71
2022/03/21 01:03:12;;;;;;;15.20;9.83;;;;;;;7.33;80.84;100558.16;8290368;28;20373;-71
2022/03/21 01:07:13;;;;;;;21.25;12.50;;;;;;;7.26;81.70;100561.41;8294384;28;20061;-72
2022/03/21 01:11:15;;;;;;;22.90;14.23;;;;;;;7.27;81.70;100561.44;8284732;28;20075;-71
2022/03/21 01:15:19;;;;;;;21.45;12.50;;;;;;;7.29;80.92;100553.72;8291078;28;20055;-71
2022/03/21 01:19:20;;;;;;;14.37;10.50;;;;;;;7.31;81.12;100558.94;8301969;28;20564;-71
2022/03/21 01:23:22;;;;;;;14.60;10.37;;;;;;;7.30;80.81;100559.78;8283597;28;20053;-71
2022/03/21 01:27:23;;;;;;;12.97;9.87;;;;;;;7.28;80.41;100564.91;8293495;28;20628;-71
2022/03/21 01:31:25;;;;;;;13.57;9.83;;;;;;;7.25;81.08;100568.28;8283070;28;20049;-72
2022/03/21 01:35:26;;;;;;;14.50;10.40;;;;;;;7.26;81.34;100564.00;8304500;28;20108;-71
2022/03/21 01:39:28;;;;;;;13.53;9.57;;;;;;;7.26;81.32;100559.69;8311797;28;20060;-72
2022/03/21 01:43:29;;;;;;;14.60;9.70;;;;;;;7.26;80.94;100559.69;8312159;28;20061;-71
2022/03/21 01:47:33;;;;;;;12.37;9.03;;;;;;;7.27;81.11;100558.88;8290364;28;20152;-71
2022/03/21 01:51:39;;;;;;;12.77;9.57;;;;;;;7.30;81.07;100565.81;8294116;28;20060;-73
2022/03/21 01:55:44;;;;;;;18.03;9.13;;;;;;;7.33;81.42;100557.28;8292553;28;20088;-72
2022/03/21 01:59:46;;;;;;;11.20;8.63;;;;;;;7.35;81.14;100559.06;8291563;28;20119;-73
2022/03/21 02:03:48;;;;;;;13.43;8.15;;;;;;;7.36;80.37;100562.50;8304094;28;20065;-73
2022/03/21 02:07:50;;;;;;;12.30;9.33;;;;;;;7.38;80.91;100559.16;8310580;28;20437;-72
2022/03/21 02:11:52;;;;;;;15.63;9.63;;;;;;;7.43;80.61;100559.28;8298509;28;20050;-72
2022/03/21 02:15:53;;;;;;;13.50;9.83;;;;;;;7.41;80.93;100555.78;8295075;28;20377;-73
2022/03/21 02:19:57;;;;;;;16.70;9.23;;;;;;;7.39;81.02;100550.59;8308565;28;20049;-73
2022/03/21 02:24:08;;;;;;;9.97;7.97;;;;;;;7.41;80.77;100548.91;8301034;28;20062;-72
2022/03/21 02:28:15;;;;;;;13.63;8.57;;;;;;;7.38;80.97;100551.41;8306386;28;20087;-73
2022/03/21 02:32:18;;;;;;;10.97;8.97;;;;;;;7.39;81.26;100557.47;8298056;28;20052;-72
2022/03/21 02:36:20;;;;;;;15.07;10.70;;;;;;;7.39;81.54;100560.91;8302035;28;20735;-73
2022/03/21 02:40:23;;;;;;;;;;;;;;;7.36;81.95;100558.25;8286257;28;20045;-73
2022/03/21 02:44:32;;;;;;;13.30;9.60;;;;;;;7.35;81.49;100568.53;8305213;28;19929;-73
2022/03/21 02:48:33;;;;;;;13.83;9.00;;;;;;;7.37;80.93;100564.28;8298499;28;20442;-73
2022/03/21 02:52:38;;;;;;;11.70;8.50;;;;;;;7.37;81.11;100561.72;8302189;28;20136;-73
2022/03/21 02:56:40;;;;;;;15.10;9.00;;;;;;;7.34;81.22;100553.84;8304993;28;20414;-72
2022/03/21 03:00:42;;;;;;;12.77;8.65;;;;;;;7.30;81.30;100564.94;8301302;28;20065;-73
2022/03/21 03:04:43;;;;;;;13.57;8.57;;;;;;;7.27;81.49;100558.88;8290927;28;20096;-72
2022/03/21 03:08:45;;;;;;;10.87;8.90;;;;;;;7.31;81.28;100566.69;8308271;28;20052;-72
2022/03/21 03:12:47;;;;;;;12.35;8.88;;;;;;;7.30;80.95;100564.94;8309507;28;20057;-73
2022/03/21 03:16:48;;;;;;;13.73;8.87;;;;;;;7.24;82.00;100566.53;8305551;28;20076;-72
2022/03/21 03:20:59;;;;;;;13.60;9.70;;;;;;;7.20;82.63;100562.13;8290148;28;20690;-73
2022/03/21 03:25:02;;;;;;;12.53;8.43;;;;;;;7.21;82.23;100563.00;8308125;28;20067;-72
2022/03/21 03:29:04;;;;;;;17.10;9.13;;;;;;;7.20;81.51;100582.78;8305334;28;20053;-73
2022/03/21 03:33:08;;;;;;;12.07;8.85;;;;;;;7.17;81.90;100576.63;8289779;28;20092;-72
2022/03/21 03:37:09;;;;;;;13.63;9.77;;;;;;;7.13;82.02;100578.25;8275135;28;20054;-73
2022/03/21 03:41:12;;;;;;;14.00;8.50;;;;;;;7.12;81.88;100578.22;8278457;28;20054;-72
2022/03/21 03:45:13;;;;;;;14.40;9.52;;;;;;;7.06;82.17;100581.50;8271856;28;20141;-73
2022/03/21 03:49:15;;;;;;;12.60;9.20;;;;;;;7.03;82.48;100578.84;8276362;28;20062;-73
2022/03/21 03:53:18;;;;;;;11.40;8.53;;;;;;;7.01;82.45;100579.63;8270880;28;20054;-72
2022/03/21 03:57:20;;;;;;;14.13;8.63;;;;;;;6.92;82.18;100580.22;8275257;28;20422;-73
2022/03/21 04:01:23;;;;;;;13.93;9.63;;;;;;;6.88;82.28;100576.69;8270325;28;20133;-72
2022/03/21 04:05:25;;;;;;;11.17;8.13;;;;;;;6.77;82.14;100583.22;8267142;28;20065;-72
2022/03/21 04:09:27;;;;;;;13.98;9.57;;;;;;;6.68;81.56;100590.72;8271333;28;20085;-72
2022/03/21 04:13:28;;;;;;;16.27;10.17;;;;;;;6.58;82.08;100596.41;8253195;28;20058;-72
2022/03/21 04:17:30;;;;;;;11.73;7.80;;;;;;;6.49;82.06;100598.72;8265280;28;20055;-72
2022/03/21 04:21:31;;;;;;;11.10;7.53;;;;;;;6.44;82.56;100597.66;8254862;28;20057;-72
2022/03/21 04:25:33;;;;;;;8.10;6.50;;;;;;;6.32;82.17;100603.34;8270503;28;20506;-72
2022/03/21 04:29:34;;;;;;;9.90;7.67;;;;;;;6.21;81.48;100618.44;8254390;28;20064;-72
2022/03/21 04:33:36;;;;;;;13.00;7.67;;;;;;;6.05;82.02;100621.34;8264405;28;20145;-72
2022/03/21 04:37:38;;;;;;;11.07;7.33;;;;;;;5.93;82.33;100621.84;8271328;28;20077;-72
2022/03/21 04:41:40;;;;;;;8.75;6.88;;;;;;;5.90;82.95;100619.13;8262414;28;20057;-72
2022/03/21 04:45:43;;;;;;;7.83;6.33;;;;;;;5.90;82.64;100632.00;8241755;28;20156;-72
2022/03/21 04:49:44;;;;;;;8.63;7.10;;;;;;;5.81;83.06;100635.97;8254022;28;20133;-72
2022/03/21 04:53:46;;;;;;;7.50;6.63;;;;;;;5.78;82.97;100649.63;8252237;28;20675;-72
2022/03/21 04:57:47;;;;;;;9.93;7.53;;;;;;;5.68;83.04;100650.97;8242734;28;20046;-73
2022/03/21 05:01:48;;;;;;;13.97;8.10;;;;;;;5.64;83.89;100650.81;8245856;28;20054;-73
2022/03/21 05:05:50;;;;;;;11.83;8.00;;;;;;;5.64;84.02;100648.25;8252261;28;20119;-72
2022/03/21 05:09:52;;;;;;;11.20;7.23;;;;;;;5.60;84.01;100651.53;8234157;28;20046;-73
2022/03/21 05:13:54;;;;;;;9.48;7.22;;;;;;;5.59;84.02;100658.41;8248407;28;20152;-72
2022/03/21 05:17:55;;;;;;;12.37;7.27;;;;;;;5.49;84.34;100658.00;8246724;28;20061;-72
2022/03/21 05:21:57;;;;;;;10.70;7.47;;;;;;;5.54;84.67;100651.31;8248230;28;20521;-72
2022/03/21 05:39:03;;;;;;;9.30;6.47;;;;;;;5.63;84.74;100657.69;8265378;28;20077;-73
2022/03/21 05:43:04;;;;;;;11.27;7.13;;;;;;;5.64;85.19;100671.44;8256839;28;20050;-73
2022/03/21 05:47:06;;;;;;;10.93;8.00;;;;;;;5.69;84.99;100672.47;8260743;28;20062;-73
2022/03/21 05:51:08;;;;;;;14.87;7.90;;;;;;;5.71;85.08;100673.41;8252546;28;20054;-73
2022/03/21 05:55:10;;;;;;;10.97;7.63;;;;;;;5.74;84.29;100689.88;8267192;28;20062;-73
2022/03/21 06:03:32;;;;;;;8.07;6.00;;;;;;;5.80;84.64;100693.47;8256257;28;20062;-73
2022/03/21 06:07:34;;;;;;;8.15;6.28;;;;;;;5.84;84.48;100680.75;8262563;28;20436;-72
2022/03/21 06:11:36;;;;;;;17.60;6.33;;;;;;;5.88;84.08;100694.63;8259116;28;20779;-73
2022/03/21 06:15:39;;;;;;;10.10;6.65;;;;;;;5.95;84.20;100697.50;8255861;28;20431;-73
2022/03/21 06:19:40;;;;;;;9.32;6.47;;;;;;;6.04;84.24;100707.25;8259264;28;20064;-72
2022/03/21 06:23:43;;;;;;;7.87;7.00;;;;;;;6.18;84.33;100702.59;8260346;28;20060;-72
2022/03/21 06:27:44;;;;;;;13.07;7.20;;;;;;;6.32;84.42;100699.66;8260412;28;20074;-72
2022/03/21 06:31:46;;;;;;;9.60;7.53;;;;;;;6.48;83.54;100705.31;8254744;28;20065;-73
2022/03/21 06:35:48;;;;;;;13.93;6.43;;;;;;;6.66;82.22;100718.81;8287683;28;20072;-72
2022/03/21 06:39:50;;;;;;;;;;;;;;;7.09;81.27;100722.75;8280781;28;20127;-73
2022/03/21 06:43:51;;;;;;;7.63;6.10;;;;;;;7.63;79.72;100717.47;8291344;28;19925;-72
2022/03/21 06:47:53;;;;;;;12.93;6.40;;;;;;;8.11;77.62;100720.56;8286693;28;20164;-72
2022/03/21 06:51:54;;;;;;;10.45;7.88;;;;;;;8.41;76.18;100730.84;8295347;28;20049;-71
2022/03/21 06:55:56;;;;;;;11.27;7.85;;;;;;;8.73;74.47;100726.50;8291320;28;20057;-71
2022/03/21 06:59:57;;;;;;;9.48;6.90;;;;;;;9.01;74.04;100747.06;8292473;28;20539;-73
2022/03/21 07:03:59;;;;;;;11.18;7.63;;;;;;;9.26;73.94;100745.00;8295930;28;20064;-73
2022/03/21 07:08:00;;;;;;;10.20;8.13;;;;;;;9.53;72.71;100745.63;8300296;28;20050;-72
2022/03/21 07:12:02;;;;;;;12.82;8.13;;;;;;;9.88;71.59;100742.91;8300212;28;20317;-74
2022/03/21 07:16:04;;;;;;;14.93;8.32;;;;;;;10.24;70.35;100751.44;8293312;28;20082;-74
2022/03/21 07:20:06;;;;;;;11.52;7.60;;;;;;;10.59;68.14;100761.56;8298476;28;20131;-74
2022/03/21 07:24:08;;;;;;;13.13;7.43;;;;;;;10.90;66.88;100750.84;8294547;28;20065;-73
2022/03/21 07:28:09;;;;;;;11.65;6.55;;;;;;;11.35;64.46;100756.72;8300033;28;20042;-74
2022/03/21 07:32:11;;;;;;;12.00;7.47;;;;;;;11.85;59.66;100756.53;8297191;28;20899;-74
2022/03/21 07:36:13;;;;;;;9.45;6.10;;;;;;;12.34;58.81;100755.38;8287878;28;20137;-73
2022/03/21 07:40:16;;;;;;;10.55;6.13;;;;;;;12.83;56.78;100753.22;8274903;28;20057;-74
2022/03/21 07:47:17;;;;;;;5.50;4.85;;;;;;;13.16;55.81;100763.94;8291108;28;20056;-74
2022/03/21 07:48:39;;;;;;;5.93;5.30;;;;;;;13.52;52.85;100759.84;8286512;28;20511;-73
2022/03/21 07:52:40;;;;;;;9.20;4.90;;;;;;;13.78;53.98;100762.56;8272572;28;20080;-72
2022/03/21 07:56:42;;;;;;;6.90;4.60;;;;;;;13.93;50.08;100769.59;8289836;28;20414;-73
2022/03/21 08:00:44;;;;;;;8.95;5.32;;;;;;;14.10;47.38;100760.97;8283475;28;20079;-73
2022/03/21 08:04:50;;;;;;;9.32;4.60;;;;;;;14.19;47.63;100767.97;8292303;28;20049;-73
2022/03/21 08:08:59;;;;;;;4.57;4.00;;;;;;;14.19;47.32;100766.22;8289856;28;20050;-73
2022/03/21 08:13:01;;;;;;;8.43;4.07;;;;;;;14.41;48.00;100768.88;8275661;28;20062;-73
2022/03/21 08:17:03;;;;;;;7.03;4.30;;;;;;;14.60;47.11;100772.44;8287925;28;20382;-73
2022/03/21 08:21:05;;;;;;;;;;;;;;;14.87;46.46;100774.19;8298163;28;20145;-73
2022/03/21 08:25:07;;;;;;;4.35;3.95;;;;;;;15.03;44.41;100775.94;8293658;28;20405;-73
2022/03/21 08:29:08;;;;;;;6.57;3.70;;;;;;;15.12;44.63;100770.72;8287909;28;20049;-73
2022/03/21 08:33:11;;;;;;;5.88;3.78;;;;;;;15.38;44.26;100773.28;8289077;28;20072;-73
2022/03/21 08:37:12;;;;;;;;;;;;;;;15.50;41.73;100767.16;8292826;28;20045;-73
2022/03/21 08:41:13;;;;;;;8.60;3.20;;;;;;;15.48;41.90;100768.91;8292111;28;19925;-73
2022/03/21 08:45:15;;;;;;;5.40;3.97;;;;;;;15.47;41.54;100768.03;8280104;28;20057;-73
2022/03/21 08:49:26;;;;;;;6.95;3.28;;;;;;;15.74;41.75;100763.63;8293864;28;20304;-73
2022/03/21 08:53:32;;;;;;;5.13;3.42;;;;;;;15.96;41.99;100770.50;8292786;28;20140;-73
2022/03/21 08:57:34;;;;;;;5.78;3.13;;;;;;;15.90;40.92;100773.16;8276621;28;20054;-73
2022/03/21 09:01:35;;;;;;;7.20;3.45;;;;;;;15.99;40.06;100767.91;8290130;28;20068;-73
2022/03/21 09:05:37;;;;;;;5.00;3.30;;;;;;;16.07;40.53;100767.84;8292584;28;20072;-73
2022/03/21 09:09:38;;;;;;;7.93;3.97;;;;;;;16.35;41.07;100763.34;8294228;28;20428;-73
2022/03/21 09:13:40;;;;;;;5.07;3.60;;;;;;;16.56;40.77;100764.09;8278968;28;20050;-73
2022/03/21 09:17:41;;;;;;;3.83;3.17;;;;;;;16.75;38.98;100770.09;8268630;28;20058;-73
2022/03/21 09:21:43;;;;;;;5.30;3.42;;;;;;;16.83;39.31;100773.53;8277258;28;20145;-73
2022/03/21 09:25:44;;;;;;;5.67;2.70;;;;;;;17.11;39.34;100768.06;8276494;28;20053;-73
2022/03/21 09:29:46;;;;;;;5.37;3.57;;;;;;;17.16;38.51;100759.25;8277874;28;20050;-73
2022/03/21 09:33:47;;;;;;;7.47;3.38;;;;;;;17.21;37.37;100748.69;8269866;28;20050;-73
2022/03/21 09:37:49;;;;;;;5.80;2.67;;;;;;;17.37;35.96;100754.66;8271436;28;20208;-73
2022/03/21 09:41:50;;;;;;;6.87;2.90;;;;;;;17.47;37.02;100749.31;8271059;28;20065;-72
2022/03/21 09:45:57;;;;;;;4.82;3.03;;;;;;;17.68;37.47;100758.75;8265752;28;20300;-72
2022/03/21 09:49:58;;;;;;;3.50;2.60;;;;;;;18.00;37.09;100752.22;8272291;28;20057;-73
2022/03/21 09:54:01;;;;;;;3.92;2.97;;;;;;;18.12;36.99;100752.03;8262151;28;20133;-72
2022/03/21 09:58:03;;;;;;;4.18;3.13;;;;;;;18.25;35.35;100750.13;8274967;28;20679;-72
2022/03/21 10:02:07;;;;;;;3.53;2.40;;;;;;;18.29;33.49;100755.31;8272573;28;20104;-72
2022/03/21 10:06:29;;;;;;;5.35;3.30;;;;;;;18.18;33.10;100746.72;8283459;28;20458;-72
2022/03/21 10:10:30;;;;;;;4.20;3.03;;;;;;;17.98;33.57;100749.63;8284862;28;20150;-72
2022/03/21 10:14:36;;;;;;;7.07;2.60;;;;;;;17.92;34.05;100736.53;8285945;28;20086;-72
2022/03/21 10:18:54;;;;;;;3.75;2.53;;;;;;;18.10;34.46;100732.78;8262172;28;20061;-72
2022/03/21 10:23:13;;;;;;;2.60;2.38;;;;;;;18.28;34.27;100737.78;8276988;28;20058;-72
2022/03/21 10:27:33;;;;;;;3.35;2.30;;;;;;;18.66;34.66;100731.97;8267341;28;20056;-72
2022/03/21 10:31:43;;;;;;;5.35;2.20;;;;;;;18.70;33.58;100732.84;8260495;28;20071;-72
2022/03/21 10:35:46;;;;;;;2.88;2.25;;;;;;;18.59;33.22;100725.06;8266036;28;20196;-73
2022/03/21 10:39:50;;;;;;;3.22;2.67;;;;;;;18.69;32.94;100724.06;8267386;28;20042;-72
2022/03/21 10:43:54;;;;;;;3.35;2.22;;;;;;;18.78;31.93;100716.91;8269309;28;20053;-72
2022/03/21 10:47:55;;;;;;;3.53;2.40;;;;;;;18.96;33.21;100724.47;8280865;28;20435;-72
2022/03/21 10:51:58;;;;;;;5.05;2.38;;;;;;;19.35;33.41;100717.63;8283730;28;20829;-72
2022/03/21 10:56:09;;;;;;;5.57;2.90;;;;;;;19.31;32.09;100708.03;8282382;28;20054;-72
2022/03/21 11:00:21;;;;;;;4.93;2.87;;;;;;;19.48;33.03;100711.22;8270159;28;20610;-73
2022/03/21 11:04:22;;;;;;;7.78;2.58;;;;;;;19.55;33.05;100706.72;8281173;28;20072;-72
2022/03/21 11:08:24;;;;;;;4.75;2.33;;;;;;;19.57;32.78;100697.06;8283045;28;20184;-72
2022/03/21 11:12:26;;;;;;;3.42;2.13;;;;;;;19.80;32.52;100697.44;8284849;28;20141;-72
2022/03/21 11:16:34;;;;;;;3.70;2.35;;;;;;;19.86;31.36;100692.00;8273331;28;20057;-73
2022/03/21 11:20:37;;;;;;;3.40;2.08;;;;;;;19.95;30.18;100692.72;8271426;28;20050;-72
2022/03/21 11:24:40;;;;;;;2.50;1.90;;;;;;;19.80;29.30;100692.16;8278945;28;20057;-72
2022/03/21 11:28:59;;;;;;;4.07;2.30;;;;;;;19.51;29.13;100678.69;8277937;28;20054;-72
2022/03/21 11:33:20;;;;;;;4.97;2.60;;;;;;;19.38;30.32;100685.94;8273946;28;20128;-72
2022/03/21 11:37:29;;;;;;;3.08;2.03;;;;;;;19.49;30.54;100683.97;8278101;28;20054;-73
2022/03/21 11:41:32;;;;;;;2.85;2.25;;;;;;;19.50;30.28;100683.06;8279018;28;20049;-72
2022/03/21 11:45:38;;;;;;;3.90;2.10;;;;;;;19.63;30.62;100675.84;8283874;28;20765;-73
2022/03/21 11:49:59;;;;;;;4.72;2.90;;;;;;;19.76;30.74;100669.41;8282618;28;20112;-73
2022/03/21 11:54:01;;;;;;;2.50;2.23;;;;;;;19.78;29.38;100669.38;8186749;28;20613;-73
2022/03/21 11:58:36;;;;;;;4.88;2.00;;;;;;;20.00;30.23;100662.72;8190080;28;20047;-73
2022/03/21 12:02:37;;;;;;;2.53;2.20;;;;;;;20.19;29.89;100676.34;8181877;28;20056;-73
2022/03/21 12:06:39;;;;;;;3.65;1.88;;;;;;;20.12;29.24;100665.09;8190970;28;20519;-73
2022/03/21 12:10:41;;;;;;;3.15;2.15;;;;;;;20.20;30.47;100664.88;8178644;28;20750;-73
2022/03/21 12:14:44;;;;;;;3.78;2.00;;;;;;;20.35;30.88;100658.38;8169996;28;20059;-73
2022/03/21 12:19:06;;;;;;;2.28;1.90;;;;;;;20.51;30.23;100658.00;8165721;28;20059;-72
2022/03/21 12:23:21;;;;;;;3.10;1.95;;;;;;;20.60;30.58;100650.75;8190055;28;20173;-73
2022/03/21 12:28:04;;;;;;;4.70;2.47;;;;;;;20.46;29.17;100644.03;8262066;28;20138;-72
2022/03/21 12:32:26;;;;;;;2.42;1.95;;;;;;;20.55;29.87;100639.47;8237095;28;20092;-72
2022/03/21 12:36:32;;;;;;;3.25;1.90;;;;;;;20.35;28.56;100638.16;8263313;28;20176;-72
2022/03/21 12:40:35;;;;;;;3.15;1.70;;;;;;;20.16;29.20;100632.44;8261232;28;20045;-73
2022/03/21 12:44:40;;;;;;;2.15;1.42;;;;;;;20.25;29.68;100630.47;8260070;28;20057;-72
2022/03/21 12:48:43;;;;;;;2.80;1.60;;;;;;;20.16;30.08;100616.63;8242925;28;20116;-73
2022/03/21 12:53:11;;;;;;;2.30;2.05;;;;;;;20.36;29.67;100623.19;8262370;28;20049;-72
2022/03/21 12:57:15;;;;;;;2.63;1.70;;;;;;;20.56;29.54;100612.16;8267845;28;20054;-72
2022/03/21 13:01:18;;;;;;;4.75;2.10;;;;;;;20.65;29.64;100626.00;8272831;28;20616;-72
2022/03/21 13:14:14;;;;;;;1.63;1.52;;;;;;;20.81;29.99;100603.53;8279364;28;20140;-73
2022/03/21 13:18:16;;;;;;;1.17;1.00;;;;;;;20.94;29.89;100601.44;8276332;28;20068;-72
2022/03/21 13:22:18;;;;;;;;;;;;;;;20.85;28.29;100593.78;8279904;28;20050;-72
2022/03/21 13:26:23;;;;;;;4.13;1.10;;;;;;;20.90;29.33;100597.16;8277553;28;20611;-72
2022/03/21 13:30:24;;;;;;;1.52;1.20;;;;;;;20.89;29.95;100590.16;8278779;28;20061;-72
2022/03/21 13:34:25;;;;;;;3.22;1.23;;;;;;;21.01;29.87;100592.47;8280860;28;20499;-72
2022/03/21 13:38:29;;;;;;;1.70;1.60;;;;;;;21.04;29.89;100584.44;8295044;28;20437;-72
2022/03/21 13:42:34;;;;;;;1.30;1.20;;;;;;;21.06;29.70;100579.97;8297243;28;20406;-72
2022/03/21 13:46:35;;;;;;;2.95;1.80;;;;;;;21.10;30.13;100586.03;8289543;28;20068;-72
2022/03/21 13:50:40;;;;;;;1.10;1.10;;;;;;;21.11;29.57;100578.06;8297497;28;20055;-72
2022/03/21 13:54:49;;;;;;;1.70;1.33;;;;;;;21.10;29.24;100578.97;8295373;28;20060;-72
2022/03/21 13:58:51;;;;;;;2.33;1.25;;;;;;;20.68;28.85;100580.19;8291870;28;20055;-72
2022/03/21 14:02:54;;;;;;;1.98;1.50;;;;;;;20.78;30.00;100571.94;8266189;28;20149;-72
2022/03/21 14:07:02;;;;;;;3.08;1.38;;;;;;;20.89;29.57;100573.44;8279825;28;20057;-72
2022/03/21 14:11:12;;;;;;;3.78;1.58;;;;;;;20.95;29.71;100567.97;8267672;28;20046;-72
2022/03/21 14:15:13;;;;;;;2.22;1.20;;;;;;;20.99;30.00;100565.19;8290249;28;20049;-73
2022/03/21 14:19:17;;;;;;;1.58;1.20;;;;;;;20.89;29.17;100565.53;8300430;28;20060;-72
2022/03/21 14:23:19;;;;;;;2.85;1.40;;;;;;;20.88;30.42;100553.22;8307345;28;20049;-72
2022/03/21 14:27:21;;;;;;;1.45;1.35;;;;;;;20.83;30.06;100547.22;8287739;28;20045;-73
2022/03/21 14:31:22;;;;;;;1.90;1.73;;;;;;;20.97;30.80;100547.66;8292988;28;20061;-73
2022/03/21 14:35:24;;;;;;;1.80;1.60;;;;;;;21.07;30.34;100550.03;8266058;28;20157;-72
2022/03/21 14:39:25;;;;;;;3.05;1.77;;;;;;;20.94;29.82;100543.34;8266074;28;20502;-72
2022/03/21 14:43:28;;;;;;;3.85;2.03;;;;;;;20.97;29.94;100537.97;8265229;28;20436;-72
2022/03/21 14:47:30;;;;;;;2.53;1.60;;;;;;;20.97;30.52;100543.25;8256441;28;20487;-72
2022/03/21 14:51:34;;;;;;;2.05;1.75;;;;;;;20.91;30.06;100537.28;8257224;28;20124;-72
2022/03/21 14:55:35;;;;;;;3.72;1.92;;;;;;;20.87;30.32;100522.47;8268995;28;20699;-72
2022/03/21 14:59:37;;;;;;;3.65;1.77;;;;;;;20.81;30.40;100523.47;8270468;28;20049;-72
2022/03/21 15:03:38;;;;;;;3.67;1.60;;;;;;;20.78;30.57;100526.19;8247065;28;20585;-72
2022/03/21 15:07:40;;;;;;;;;;;;;;;20.78;30.07;100520.94;8263827;28;20762;-71
2022/03/21 15:11:42;;;;;;;3.15;1.70;;;;;;;20.75;29.89;100526.28;8257078;28;19936;-71
2022/03/21 15:15:45;;;;;;;2.03;1.70;;;;;;;20.76;29.91;100520.97;8256242;28;20068;-71
2022/03/21 15:19:46;;;;;;;2.15;1.60;;;;;;;20.67;30.32;100523.88;8258857;28;20069;-71
2022/03/21 15:23:48;;;;;;;4.90;1.55;;;;;;;20.69;30.31;100522.06;8261895;28;20053;-71
2022/03/21 15:27:50;;;;;;;2.10;1.23;;;;;;;20.68;30.13;100522.09;8262191;28;20069;-71
2022/03/21 15:31:52;;;;;;;3.83;1.60;;;;;;;20.70;29.65;100517.66;8242864;28;20170;-71
2022/03/21 15:41:39;;;;;;;14.60;1.70;;;;;;;20.73;28.23;100515.78;8266735;28;20065;-72
2022/03/21 15:44:36;;;;;;;3.60;1.23;;;;;;;21.24;29.12;100520.50;8272884;28;20045;-72
2022/03/21 15:48:37;;;;;;;3.10;1.35;;;;;;;21.50;28.54;100508.25;8266671;28;20053;-72
2022/03/21 15:52:41;;;;;;;2.63;1.50;;;;;;;21.63;27.23;100505.19;8268320;28;20050;-71
2022/03/21 15:56:42;;;;;;;3.38;1.27;;;;;;;21.82;26.96;100504.59;8264323;28;20050;-71
2022/03/21 16:00:44;;;;;;;8.95;1.17;;;;;;;22.06;27.35;100509.09;8267345;28;20061;-71
2022/03/21 16:04:52;;;;;;;3.85;1.50;;;;;;;23.00;25.77;100507.53;8269028;28;20052;-71
2022/03/21 16:08:55;;;;;;;4.95;1.67;;;;;;;23.86;24.89;100507.69;8279027;28;20061;-71
2022/03/21 16:12:56;;;;;;;4.55;1.65;;;;;;;25.22;23.93;100502.59;8289608;28;20060;-71
2022/03/21 16:16:58;;;;;;;2.72;1.40;;;;;;;24.35;24.97;100503.00;8271552;28;20480;-72
2022/03/21 16:20:59;;;;;;;3.47;1.75;;;;;;;24.20;25.27;100504.47;8276424;28;20156;-72
2022/03/21 16:25:01;;;;;;;2.15;1.75;;;;;;;24.05;25.45;100505.97;8276700;28;20635;-72
2022/03/21 16:29:03;;;;;;;3.28;1.55;;;;;;;24.26;24.90;100500.72;8288770;28;20767;-72
2022/03/21 16:33:06;;;;;;;1.85;1.52;;;;;;;24.39;24.95;100505.44;8291146;28;20088;-72
2022/03/21 16:37:07;;;;;;;5.43;1.85;;;;;;;24.83;24.74;100499.09;8244069;28;20169;-72
2022/03/21 16:41:09;;;;;;;1.83;1.73;;;;;;;24.52;24.18;100499.59;8260118;28;20056;-72
2022/03/21 16:45:11;;;;;;;3.42;1.77;;;;;;;23.68;24.95;100500.47;8252905;28;20587;-72
2022/03/21 16:49:12;;;;;;;3.67;1.77;;;;;;;22.17;26.92;100503.44;8259428;28;20060;-72
2022/03/21 16:53:14;;;;;;;1.70;1.60;;;;;;;21.18;28.46;100502.13;8254565;28;20757;-72
2022/03/21 16:57:15;;;;;;;6.80;2.38;;;;;;;20.38;28.98;100498.25;8259357;28;20054;-72
2022/03/21 17:01:18;;;;;;;;;;;;;;;19.76;30.37;100497.22;8241503;28;20123;-72
2022/03/21 17:05:20;;;;;;;;;;;;;;;19.23;32.15;100507.19;8263097;28;20732;-72
2022/03/21 17:09:21;;;;;;;;;;;;;;;18.83;32.45;100505.38;8266058;28;19936;-72
2022/03/21 17:13:22;;;;;;;;;;;;;;;18.48;32.06;100497.28;8266015;28;19926;-72
2022/03/21 17:17:24;;;;;;;;;;;;;;;18.18;32.38;100506.63;8260135;28;19975;-71
2022/03/21 17:25:45;;;;;;;;;;;;;;;17.48;35.91;100512.06;8259101;28;19936;-72
2022/03/21 17:29:47;;;;;;;;;;;;;;;17.11;36.98;100510.84;8263548;28;19976;-72
2022/03/21 17:33:52;;;;;;;;;;;;;;;16.79;38.17;100512.09;8260916;28;19979;-72
2022/03/21 17:37:54;;;;;;;;;;;;;;;16.46;38.84;100515.94;8245049;28;19925;-71
2022/03/21 17:41:57;;;;;;;;;;;;;;;16.22;39.29;100517.06;8265262;28;20016;-72
2022/03/21 17:45:58;;;;;;;;;;;;;;;15.92;39.95;100518.19;8246915;28;20196;-72
2022/03/21 17:50:00;;;;;;;;;;;;;;;15.71;39.68;100524.47;8266317;28;20065;-71
2022/03/21 17:54:01;;;;;;;;;;;;;;;15.47;40.93;100528.97;8266250;28;19925;-71
2022/03/21 17:58:03;;;;;;;;;;;;;;;15.11;43.06;100531.78;8251566;28;19925;-71
2022/03/21 18:02:08;;;;;;;;;;;;;;;14.87;42.86;100528.38;8264062;28;19925;-71
2022/03/21 18:06:10;;;;;;;;;;;;;;;14.66;43.33;100531.91;8266524;28;19933;-72
2022/03/21 18:10:13;;;;;;;;;;;;;;;14.44;44.41;100537.19;8248008;28;19929;-72
2022/03/21 18:14:14;;;;;;;;;;;;;;;14.18;45.69;100537.22;8268775;28;19935;-71
2022/03/21 18:18:16;;;;;;;;;;;;;;;13.97;46.43;100542.41;8261310;28;20657;-71
2022/03/21 18:22:18;;;;;;;;;;;;;;;13.77;46.82;100546.75;8264146;28;19933;-71
2022/03/21 18:26:20;;;;;;;;;;;;;;;13.53;47.74;100545.00;8250847;28;19932;-72
2022/03/21 18:30:21;;;;;;;;;;;;;;;13.36;48.27;100555.38;8256172;28;20345;-71
2022/03/21 18:34:23;;;;;;;;;;;;;;;13.19;49.57;100549.25;8270840;28;19931;-71
2022/03/21 18:38:24;;;;;;;;;;;;;;;12.99;50.37;100550.00;8250698;28;19988;-71
2022/03/21 18:42:25;;;;;;;;;;;;;;;12.86;51.40;100560.34;8270195;28;20257;-71
2022/03/21 18:46:27;;;;;;;;;;;;;;;12.69;52.45;100568.94;8257693;28;19935;-71
2022/03/21 18:50:29;;;;;;;;;;;;;;;12.51;52.05;100566.22;8267111;28;19997;-71
2022/03/21 18:54:31;;;;;;;;;;;;;;;12.44;52.42;100571.41;8265186;28;20308;-72
2022/03/21 18:58:32;;;;;;;;;;;;;;;12.31;52.08;100586.06;8244517;28;19936;-71
2022/03/21 19:02:33;;;;;;;;;;;;;;;12.18;53.68;100587.69;8245512;28;19925;-71
2022/03/21 19:06:35;;;;;;;;;;;;;;;12.08;53.11;100594.56;8254393;28;19925;-71
2022/03/21 19:10:36;;;;;;;;;;;;;;;12.15;51.51;100598.06;8249102;28;20421;-72
2022/03/21 19:14:38;;;;;;;;;;;;;;;12.24;50.66;100597.28;8265481;28;19925;-71
2022/03/21 19:18:42;;;;;;;;;;;;;;;12.30;50.17;100602.53;8241698;28;20338;-71
2022/03/21 19:22:43;;;;;;;;;;;;;;;12.42;49.38;100597.44;8262825;28;20028;-71
2022/03/21 19:26:47;;;;;;;;;;;;;;;12.53;48.10;100602.72;8267221;28;20353;-71
2022/03/21 19:30:49;;;;;;;;;;;;;;;12.68;47.79;100610.63;8257944;28;20480;-71
2022/03/21 19:34:50;;;;;;;;;;;;;;;12.76;47.47;100608.09;8268631;28;20624;-72
2022/03/21 19:38:51;;;;;;;;;;;;;;;12.78;47.25;100619.41;8241538;28;19925;-72
2022/03/21 19:43:01;;;;;;;;;;;;;;;12.78;46.62;100615.06;8265337;28;20334;-72
2022/03/21 19:47:02;;;;;;;;;;;;;;;12.75;46.98;100617.66;8242635;28;19984;-73